X  Schließen METAR Luftfahrt Wetterdaten     EDTY Adolf Würth Airport
Temperatur
22°C Temperatur
15°C Taupunkt
65% Feuchtigkeit



Wind
21 km/h
13 MPS
6 m/s
11 kts



270°
West
Aktuelle Wetterlage

teilweise bewölkt teilweise bewölkt
Luftdruck 1012.92 (hPa) - 29.91 (inHg)
Sichtweite 6.2 (Meile) - 10 (km)
Flughafen
Flughafen Code EDTY

Position : Adolf Würth Airport
Entfernung: 21 (km)

Metar:
EDTY 302120Z AUTO 27011KT 9999 // FEW073/// SCT110/// OVC130/// 22/15 Q1013

Zeit: 30-06-2022 23:20 CEST